createdAt,value
2022-09-30T00:02:18.319Z,99392.47
2022-09-30T00:07:21.239Z,99392.47
2022-09-30T00:12:23.853Z,99396.03
2022-09-30T00:17:28.281Z,99403.91
2022-09-30T00:22:30.904Z,99407.69
2022-09-30T00:27:33.483Z,99408.03
2022-09-30T00:32:37.603Z,99410.13
2022-09-30T00:37:40.485Z,99403.91
2022-09-30T00:42:43.171Z,99408.84
2022-09-30T00:47:54.509Z,99412.63
2022-09-30T00:53:01.682Z,99422.28
2022-09-30T00:58:05.595Z,99414.91
2022-09-30T01:03:09.583Z,99411.13
2022-09-30T01:08:12.565Z,99411.81
2022-09-30T01:13:17.860Z,99418.03
2022-09-30T01:18:28.516Z,99428.16
2022-09-30T01:23:54.942Z,99415.56
2022-09-30T01:29:11.075Z,99417.69
2022-09-30T01:34:19.484Z,99415.69
2022-09-30T01:39:34.132Z,99411.13
2022-09-30T01:44:39.548Z,99412.94
2022-09-30T01:49:46.831Z,99418.16
2022-09-30T01:54:53.105Z,99432.75
2022-09-30T01:59:58.557Z,99433.22
2022-09-30T02:05:04.722Z,99431.09
2022-09-30T02:10:11.303Z,99423.41
2022-09-30T02:15:16.575Z,99430.59
2022-09-30T02:20:23.437Z,99436.50
2022-09-30T02:25:29.143Z,99430.75
2022-09-30T02:30:32.922Z,99438.41
2022-09-30T02:35:38.531Z,99436.28
2022-09-30T02:40:45.079Z,99449.84
2022-09-30T02:45:52.053Z,99457.91
2022-09-30T02:51:01.364Z,99458.25
2022-09-30T02:56:10.417Z,99461.53
2022-09-30T03:01:14.523Z,99466.75
2022-09-30T03:06:19.345Z,99485.88
2022-09-30T03:11:24.408Z,99475.75
2022-09-30T03:16:37.351Z,99481.81
2022-09-30T03:21:52.813Z,99468.06
2022-09-30T03:27:01.579Z,99475.78
2022-09-30T03:32:11.950Z,99479.19
2022-09-30T03:37:20.962Z,99481.81
2022-09-30T03:42:27.071Z,99491.63
2022-09-30T03:47:32.833Z,99502.09
2022-09-30T03:52:37.358Z,99511.59
2022-09-30T03:57:39.995Z,99508.66
2022-09-30T04:02:43.000Z,99509.81
2022-09-30T04:07:47.250Z,99512.91
2022-09-30T04:12:49.839Z,99526.31
2022-09-30T04:17:52.433Z,99528.28
2022-09-30T04:22:58.128Z,99533.03
2022-09-30T04:28:00.730Z,99535.16
2022-09-30T04:33:03.472Z,99541.25
2022-09-30T04:38:07.674Z,99542.22
2022-09-30T04:43:10.284Z,99547.78
2022-09-30T04:48:12.954Z,99554.47
2022-09-30T04:53:17.489Z,99553.31
2022-09-30T04:58:20.058Z,99556.59
2022-09-30T05:03:22.816Z,99564.69
2022-09-30T05:08:26.844Z,99567.78
2022-09-30T05:13:32.531Z,99579.41
2022-09-30T05:18:37.081Z,99570.56
2022-09-30T05:23:41.152Z,99588.25
2022-09-30T05:28:43.891Z,99586.47
2022-09-30T05:33:46.855Z,99583.66
2022-09-30T05:38:53.272Z,99582.03
2022-09-30T05:43:55.914Z,99588.38
2022-09-30T05:48:58.577Z,99600.34
2022-09-30T05:54:02.629Z,99598.84
2022-09-30T05:59:05.541Z,99608.19
2022-09-30T06:04:08.238Z,99605.78
2022-09-30T06:09:12.251Z,99615.28
2022-09-30T06:14:16.894Z,99622.66
2022-09-30T06:19:19.613Z,99630.72
2022-09-30T06:24:23.632Z,99622.25
2022-09-30T06:29:26.348Z,99636.63
2022-09-30T06:34:29.190Z,99647.00
2022-09-30T06:39:33.164Z,99651.97
2022-09-30T06:44:46.016Z,99663.81
2022-09-30T06:49:53.225Z,99670.09
2022-09-30T06:54:57.500Z,99671.63
2022-09-30T07:00:00.068Z,99665.28
2022-09-30T07:05:04.156Z,99681.84
2022-09-30T07:10:09.154Z,99677.09
2022-09-30T07:15:13.820Z,99678.44
2022-09-30T07:20:16.676Z,99686.78
2022-09-30T07:25:20.579Z,99696.50
2022-09-30T07:30:27.282Z,99699.31
2022-09-30T07:35:30.243Z,99715.19
2022-09-30T07:40:34.192Z,99716.69
2022-09-30T07:45:37.692Z,99720.78
2022-09-30T07:50:45.327Z,99712.94
2022-09-30T07:55:49.391Z,99716.75
2022-09-30T08:00:52.236Z,99720.22
2022-09-30T08:05:54.966Z,99736.59
2022-09-30T08:11:01.205Z,99733.81
2022-09-30T08:16:03.902Z,99742.50
2022-09-30T08:21:07.667Z,99752.00
2022-09-30T08:26:13.163Z,99757.22
2022-09-30T08:31:17.208Z,99777.88
2022-09-30T08:36:21.798Z,99766.97
2022-09-30T08:41:53.885Z,99773.66
2022-09-30T08:47:00.949Z,99770.31
2022-09-30T08:52:05.414Z,99778.25
2022-09-30T08:57:12.275Z,99782.41
2022-09-30T09:02:19.739Z,99785.19
2022-09-30T09:07:31.908Z,99776.94
2022-09-30T09:12:42.639Z,99778.84
2022-09-30T09:18:22.009Z,99776.69
2022-09-30T09:23:22.189Z,99777.47
2022-09-30T09:28:33.774Z,99776.59
2022-09-30T09:33:37.264Z,99783.47
2022-09-30T09:38:55.084Z,99780.75
2022-09-30T09:44:03.575Z,99781.94
2022-09-30T09:49:28.652Z,99777.78
2022-09-30T09:54:33.092Z,99766.13
2022-09-30T09:59:37.618Z,99760.59
2022-09-30T10:04:50.944Z,99757.09
2022-09-30T10:10:07.745Z,99755.19
2022-09-30T10:15:21.784Z,99766.03
2022-09-30T10:20:29.125Z,99768.13
2022-09-30T10:25:32.069Z,99756.56
2022-09-30T10:30:43.925Z,99767.19
2022-09-30T10:36:16.129Z,99751.28
2022-09-30T10:41:23.928Z,99748.41
2022-09-30T10:46:30.621Z,99740.41
2022-09-30T10:51:36.299Z,99741.03
2022-09-30T10:56:45.028Z,99745.69
2022-09-30T11:01:53.884Z,99752.28
2022-09-30T11:07:06.112Z,99753.25
2022-09-30T11:12:14.063Z,99752.69
2022-09-30T11:17:28.706Z,99745.34
2022-09-30T11:22:37.322Z,99740.66
2022-09-30T11:27:49.339Z,99732.41
2022-09-30T11:33:08.470Z,99734.03
2022-09-30T11:38:21.250Z,99728.50
2022-09-30T11:43:31.166Z,99729.44
2022-09-30T11:48:46.356Z,99726.75
2022-09-30T11:53:57.430Z,99718.75
2022-09-30T11:59:02.131Z,99720.81
2022-09-30T12:04:08.882Z,99721.00
2022-09-30T12:09:16.924Z,99724.56
2022-09-30T12:14:24.641Z,99715.84
2022-09-30T12:19:32.312Z,99722.28
2022-09-30T12:24:37.357Z,99720.91
2022-09-30T12:30:00.890Z,99733.22
2022-09-30T12:35:19.682Z,99729.53
2022-09-30T12:40:33.609Z,99738.25
2022-09-30T12:46:02.748Z,99738.63
2022-09-30T12:51:08.059Z,99735.09
2022-09-30T12:56:13.453Z,99728.03
2022-09-30T13:01:18.401Z,99727.84
2022-09-30T13:06:23.215Z,99725.13
2022-09-30T13:11:42.048Z,99736.09
2022-09-30T13:17:19.429Z,99724.59
2022-09-30T13:22:56.979Z,99713.78
2022-09-30T13:28:32.041Z,99715.75
2022-09-30T13:33:44.373Z,99728.13
2022-09-30T13:39:07.750Z,99724.75
2022-09-30T13:44:16.257Z,99735.31
2022-09-30T13:49:22.717Z,99734.59
2022-09-30T13:54:31.757Z,99736.59
2022-09-30T13:59:44.015Z,99729.50
2022-09-30T14:05:00.831Z,99732.84
2022-09-30T14:10:16.473Z,99740.56
2022-09-30T14:15:47.230Z,99740.28
2022-09-30T14:21:01.886Z,99740.25
2022-09-30T14:26:16.071Z,99734.41
2022-09-30T14:31:20.273Z,99738.25
2022-09-30T14:36:23.592Z,99739.59
2022-09-30T14:41:28.189Z,99738.63
2022-09-30T14:46:34.249Z,99741.94
2022-09-30T14:51:43.507Z,99744.59
2022-09-30T14:56:48.451Z,99737.56
2022-09-30T15:01:55.327Z,99720.03
2022-09-30T15:07:00.293Z,99727.94
2022-09-30T15:12:11.057Z,99728.97
2022-09-30T15:17:19.265Z,99734.59
2022-09-30T15:22:22.380Z,99737.78
2022-09-30T15:27:29.868Z,99732.47
2022-09-30T15:32:33.889Z,99738.03
2022-09-30T15:37:36.626Z,99722.34
2022-09-30T15:42:42.407Z,99735.81
2022-09-30T15:47:56.478Z,99728.66
2022-09-30T15:53:04.919Z,99726.50
2022-09-30T15:58:33.533Z,99732.56
2022-09-30T16:03:36.438Z,99740.59
2022-09-30T16:08:43.952Z,99735.19
2022-09-30T16:13:48.199Z,99736.03
2022-09-30T16:18:52.486Z,99734.00
2022-09-30T16:23:55.393Z,99738.84
2022-09-30T16:29:05.864Z,99739.19
2022-09-30T16:34:13.764Z,99752.72
2022-09-30T16:39:17.324Z,99744.81
2022-09-30T16:44:23.076Z,99748.28
2022-09-30T16:49:25.947Z,99748.25
2022-09-30T16:54:28.640Z,99746.19
2022-09-30T16:59:33.212Z,99755.13
2022-09-30T17:04:38.601Z,99753.06
2022-09-30T17:09:43.109Z,99747.56
2022-09-30T17:14:47.378Z,99762.72
2022-09-30T17:19:50.031Z,99770.84
2022-09-30T17:24:52.628Z,99765.66
2022-09-30T17:29:56.682Z,99767.47
2022-09-30T17:34:59.316Z,99763.94
2022-09-30T17:40:22.503Z,99764.84
2022-09-30T17:45:28.048Z,99780.09
2022-09-30T17:50:30.772Z,99778.50
2022-09-30T17:55:34.620Z,99780.09
2022-09-30T18:00:38.637Z,99785.19
2022-09-30T18:05:41.226Z,99784.97
2022-09-30T18:10:43.842Z,99782.81
2022-09-30T18:15:48.031Z,99770.44
2022-09-30T18:20:51.937Z,99774.94
2022-09-30T18:25:54.948Z,99774.72
2022-09-30T18:31:05.778Z,99769.53
2022-09-30T18:36:08.404Z,99760.00
2022-09-30T18:41:11.322Z,99764.97
2022-09-30T18:46:15.443Z,99772.41
2022-09-30T18:51:18.573Z,99762.72
2022-09-30T18:56:22.477Z,99765.63
2022-09-30T19:01:27.259Z,99761.06
2022-09-30T19:06:30.022Z,99762.41
2022-09-30T19:11:33.537Z,99767.38
2022-09-30T19:16:39.093Z,99768.38
2022-09-30T19:21:42.045Z,99758.00
2022-09-30T19:26:47.897Z,99769.41
2022-09-30T19:31:51.949Z,99779.09
2022-09-30T19:36:57.867Z,99780.81
2022-09-30T19:42:04.047Z,99781.00
2022-09-30T19:47:08.254Z,99787.78
2022-09-30T19:52:20.140Z,99779.91
2022-09-30T19:57:24.650Z,99777.63
2022-09-30T20:02:28.670Z,99781.44
2022-09-30T20:07:31.383Z,99773.56
2022-09-30T20:12:34.099Z,99775.91
2022-09-30T20:17:38.032Z,99775.59
2022-09-30T20:22:40.782Z,99777.09
2022-09-30T20:27:49.843Z,99784.16
2022-09-30T20:32:56.018Z,99779.56
2022-09-30T20:37:58.626Z,99789.59
2022-09-30T20:43:04.065Z,99788.78
2022-09-30T20:48:08.554Z,99780.25
2022-09-30T20:53:13.633Z,99782.41
2022-09-30T20:58:16.263Z,99779.41
2022-09-30T21:03:20.230Z,99771.38
2022-09-30T21:08:23.046Z,99768.75
2022-09-30T21:13:25.654Z,99768.75
2022-09-30T21:18:29.681Z,99770.41
2022-09-30T21:23:33.706Z,99771.38
2022-09-30T21:28:37.003Z,99767.09
2022-09-30T21:33:42.311Z,99774.34
2022-09-30T21:38:44.921Z,99775.00
2022-09-30T21:43:48.232Z,99777.94
2022-09-30T21:48:53.600Z,99789.09
2022-09-30T21:53:56.162Z,99787.78
2022-09-30T21:58:58.867Z,99798.63
2022-09-30T22:04:03.360Z,99792.06
2022-09-30T22:09:05.966Z,99793.84
2022-09-30T22:14:08.608Z,99792.84
2022-09-30T22:19:13.534Z,99797.13
2022-09-30T22:24:16.109Z,99796.66
2022-09-30T22:29:18.713Z,99802.72
2022-09-30T22:34:40.127Z,99801.25
2022-09-30T22:39:42.759Z,99806.50
2022-09-30T22:44:46.213Z,99803.22
2022-09-30T22:49:50.182Z,99802.41
2022-09-30T22:54:53.792Z,99794.19
2022-09-30T22:59:58.916Z,99795.00
2022-09-30T23:05:02.899Z,99791.09
2022-09-30T23:10:06.588Z,99788.94
2022-09-30T23:15:09.826Z,99794.69
2022-09-30T23:20:13.800Z,99792.41
2022-09-30T23:25:16.676Z,99783.72
2022-09-30T23:30:19.294Z,99773.19
2022-09-30T23:35:23.250Z,99782.06
2022-09-30T23:40:25.878Z,99776.81
2022-09-30T23:45:28.563Z,99769.28
2022-09-30T23:50:33.337Z,99776.97
2022-09-30T23:55:35.966Z,99771.41
